Time;durP1;ratioP1;P1;durP2;ratioP2;P2;SDS_P1;SDS_P2;PMS_P1;PMS_P2;Temp;Humidity;BMP_temperature;BMP_pressure;BME280_temperature;BME280_humidity;BME280_pressure;Samples;Min_cycle;Max_cycle;Signal;HPM_P1;HPM_P2
2021/01/06 00:01:23;;;;;;;56.87;20.87;;;-0.70;99.90;;;;;;5074374;28;20127;-82
2021/01/06 00:03:49;;;;;;;53.30;20.43;;;-0.70;99.90;;;;;;5053525;28;20037;-82
2021/01/06 00:06:21;;;;;;;57.20;20.47;;;-0.70;99.90;;;;;;5039577;28;20135;-81
2021/01/06 00:08:47;;;;;;;60.10;21.00;;;-0.70;99.90;;;;;;5040669;28;20115;-81
2021/01/06 00:11:13;;;;;;;57.53;20.20;;;-0.70;99.90;;;;;;5057159;28;20108;-81
2021/01/06 00:13:40;;;;;;;47.77;16.97;;;-0.70;99.90;;;;;;5055814;28;20044;-83
2021/01/06 00:16:06;;;;;;;62.90;22.23;;;-0.70;99.90;;;;;;5049842;28;20025;-81
2021/01/06 00:18:32;;;;;;;67.50;23.90;;;-0.80;99.90;;;;;;5051992;28;20082;-82
2021/01/06 00:20:58;;;;;;;60.40;21.90;;;-0.80;99.90;;;;;;5056008;28;20053;-81
2021/01/06 00:23:24;;;;;;;68.30;22.23;;;-0.70;99.90;;;;;;5034798;28;20034;-81
2021/01/06 00:25:50;;;;;;;57.40;21.27;;;-0.70;99.90;;;;;;5017084;28;20025;-81
2021/01/06 00:28:17;;;;;;;60.70;20.90;;;-0.70;99.90;;;;;;5030024;28;20022;-83
2021/01/06 00:30:52;;;;;;;69.40;23.10;;;-0.70;99.90;;;;;;5045956;28;20078;-81
2021/01/06 00:33:25;;;;;;;61.40;22.60;;;-0.70;99.90;;;;;;5058461;28;20693;-81
2021/01/06 00:36:18;;;;;;;65.20;22.30;;;-0.70;99.90;;;;;;5033357;28;20049;-82
2021/01/06 00:38:44;;;;;;;60.80;21.67;;;-0.70;99.90;;;;;;5047208;28;20029;-82
2021/01/06 00:41:09;;;;;;;62.87;21.70;;;-0.70;99.90;;;;;;5032462;28;20495;-82
2021/01/06 00:43:35;;;;;;;64.73;21.57;;;-0.70;99.90;;;;;;5032008;28;20468;-82
2021/01/06 00:46:01;;;;;;;68.30;23.73;;;-0.70;99.90;;;;;;5032421;28;20480;-81
2021/01/06 00:48:26;;;;;;;66.47;22.73;;;-0.80;99.90;;;;;;5041021;28;20099;-82
2021/01/06 00:50:52;;;;;;;72.03;24.60;;;-0.80;99.90;;;;;;5054662;28;20032;-80
2021/01/06 00:53:26;;;;;;;72.90;23.50;;;-0.80;99.90;;;;;;5032119;28;20025;-80
2021/01/06 00:55:54;;;;;;;68.43;23.03;;;-0.90;99.90;;;;;;5058965;28;20123;-82
2021/01/06 00:58:20;;;;;;;68.80;23.70;;;-0.90;99.90;;;;;;5048967;28;20052;-82
2021/01/06 01:00:47;;;;;;;70.93;23.93;;;-1.00;99.90;;;;;;5048022;28;20553;-81
2021/01/06 01:03:13;;;;;;;71.90;25.23;;;-1.00;99.90;;;;;;5054102;28;20072;-82
2021/01/06 01:05:39;;;;;;;78.33;23.47;;;-1.00;99.90;;;;;;5047068;28;20522;-82
2021/01/06 01:08:07;;;;;;;69.47;24.07;;;-1.00;99.90;;;;;;5037414;28;20064;-83
2021/01/06 01:10:44;;;;;;;78.87;25.63;;;-1.00;99.90;;;;;;5030232;28;20051;-82
2021/01/06 01:13:15;;;;;;;72.77;24.57;;;-1.00;99.90;;;;;;5047745;28;20029;-81
2021/01/06 01:15:42;;;;;;;78.30;24.67;;;-1.00;99.90;;;;;;5048458;28;20059;-81
2021/01/06 01:18:14;;;;;;;75.40;26.33;;;-1.00;99.90;;;;;;5060236;28;20114;-82
2021/01/06 01:20:44;;;;;;;72.37;23.83;;;-1.10;99.90;;;;;;5032651;28;20029;-81
2021/01/06 01:23:11;;;;;;;72.07;24.03;;;-1.10;99.90;;;;;;5044596;28;20041;-82
2021/01/06 01:25:36;;;;;;;81.77;27.77;;;-1.00;99.90;;;;;;5053244;28;20043;-82
2021/01/06 01:28:02;;;;;;;81.77;26.73;;;-1.10;99.90;;;;;;5061916;28;20115;-81
2021/01/06 01:30:28;;;;;;;81.27;26.43;;;-1.10;99.90;;;;;;5054049;28;20089;-82
2021/01/06 01:32:54;;;;;;;77.07;26.13;;;-1.10;99.90;;;;;;5070502;28;20013;-82
2021/01/06 01:35:29;;;;;;;74.70;25.60;;;-1.20;99.90;;;;;;5069082;28;20029;-82
2021/01/06 01:37:56;;;;;;;82.00;26.03;;;-1.10;99.90;;;;;;5078369;28;20043;-82
2021/01/06 01:40:26;;;;;;;78.07;26.37;;;-1.20;99.90;;;;;;5053633;28;20057;-81
2021/01/06 01:42:57;;;;;;;82.97;27.70;;;-1.20;99.90;;;;;;5055382;28;20040;-82
2021/01/06 01:45:34;;;;;;;87.43;26.67;;;-1.10;99.90;;;;;;5052653;28;20082;-81
2021/01/06 01:48:27;;;;;;;75.80;27.03;;;-1.10;99.90;;;;;;5038679;28;20112;-82
2021/01/06 01:50:57;;;;;;;84.20;26.93;;;-1.10;99.90;;;;;;5035493;28;20028;-82
2021/01/06 01:53:36;;;;;;;80.87;27.40;;;-1.10;99.90;;;;;;5050509;28;20116;-82
2021/01/06 01:56:04;;;;;;;69.82;24.63;;;-1.10;99.90;;;;;;5055975;28;20496;-83
2021/01/06 01:58:32;;;;;;;80.87;26.93;;;-1.10;99.90;;;;;;5037717;28;20369;-82
2021/01/06 02:01:00;;;;;;;71.63;24.20;;;-1.10;99.90;;;;;;5053392;28;20364;-82
2021/01/06 02:03:52;;;;;;;84.47;26.53;;;-1.20;99.90;;;;;;5060040;28;20024;-81
2021/01/06 02:06:20;;;;;;;83.87;28.30;;;-1.10;99.90;;;;;;5067888;28;20037;-81
2021/01/06 02:09:10;;;;;;;84.83;28.13;;;-1.10;99.90;;;;;;5036169;28;20044;-82
2021/01/06 02:11:40;;;;;;;83.40;27.70;;;-1.10;99.90;;;;;;5033770;28;20124;-81
2021/01/06 02:14:15;;;;;;;;;;;-1.10;99.90;;;;;;5051926;28;20025;-81
2021/01/06 02:16:46;;;;;;;86.60;27.03;;;-1.10;99.90;;;;;;5038443;28;19915;-82
2021/01/06 02:19:15;;;;;;;83.30;26.90;;;-1.10;99.90;;;;;;5052734;28;20096;-82
2021/01/06 02:21:41;;;;;;;81.35;27.30;;;-1.10;99.90;;;;;;5054127;28;20396;-83
2021/01/06 02:24:07;;;;;;;77.33;25.23;;;-1.10;99.90;;;;;;5018550;28;20067;-81
2021/01/06 02:26:32;;;;;;;87.87;28.13;;;-1.10;99.90;;;;;;5036413;28;20395;-82
2021/01/06 02:28:59;;;;;;;91.70;26.90;;;-1.20;99.90;;;;;;5035050;28;20037;-82
2021/01/06 02:31:25;;;;;;;92.27;28.83;;;-1.20;99.90;;;;;;5021514;28;20071;-82
2021/01/06 02:33:52;;;;;;;90.70;28.67;;;-1.20;99.90;;;;;;5027988;28;20956;-82
2021/01/06 02:36:19;;;;;;;80.70;28.43;;;-1.20;99.90;;;;;;5025166;28;20060;-81
2021/01/06 02:38:45;;;;;;;85.67;27.97;;;-1.20;99.90;;;;;;5021260;28;20105;-81
2021/01/06 02:41:12;;;;;;;85.23;27.40;;;-1.20;99.90;;;;;;5044818;28;20096;-83
2021/01/06 02:43:38;;;;;;;80.23;27.90;;;-1.20;99.90;;;;;;5037335;28;20029;-81
2021/01/06 02:46:05;;;;;;;81.27;25.30;;;-1.20;99.90;;;;;;5008897;28;20067;-83
2021/01/06 02:48:31;;;;;;;89.40;29.10;;;-1.30;99.90;;;;;;5029329;28;20041;-82
2021/01/06 02:51:02;;;;;;;77.30;25.70;;;-1.30;99.90;;;;;;5024201;28;20041;-81
2021/01/06 02:53:36;;;;;;;73.17;24.77;;;-1.30;99.90;;;;;;5038614;28;20030;-82
2021/01/06 02:56:03;;;;;;;84.40;26.33;;;-1.30;99.90;;;;;;5006612;28;20051;-81
2021/01/06 02:58:30;;;;;;;77.27;26.03;;;-1.30;99.90;;;;;;5032388;28;20495;-82
2021/01/06 03:00:56;;;;;;;89.83;28.77;;;-1.30;99.90;;;;;;5035917;28;20037;-80
2021/01/06 03:03:30;;;;;;;90.63;27.77;;;-1.30;99.90;;;;;;5026537;28;20060;-81
2021/01/06 03:06:40;;;;;;;86.30;26.80;;;-1.30;99.90;;;;;;5020343;28;20017;-82
2021/01/06 03:09:25;;;;;;;90.87;28.00;;;-1.40;99.90;;;;;;4958403;28;20061;-83
2021/01/06 03:11:51;;;;;;;87.67;27.80;;;-1.40;99.90;;;;;;4953641;28;20035;-82
2021/01/06 03:14:17;;;;;;;85.97;26.27;;;-1.40;99.90;;;;;;4936858;28;20046;-81
2021/01/06 03:16:43;;;;;;;91.93;28.80;;;-1.40;99.90;;;;;;4956701;28;20133;-81
2021/01/06 03:19:11;;;;;;;97.03;29.63;;;-1.40;99.90;;;;;;4959920;28;20408;-81
2021/01/06 03:21:39;;;;;;;86.23;28.70;;;-1.40;99.90;;;;;;4960200;28;20051;-82
2021/01/06 03:24:06;;;;;;;87.07;28.73;;;-1.40;99.90;;;;;;4972133;28;20045;-83
2021/01/06 03:26:32;;;;;;;74.50;24.90;;;-1.40;99.90;;;;;;4959715;28;20043;-82
2021/01/06 03:28:58;;;;;;;80.80;26.40;;;-1.40;99.90;;;;;;4971602;28;20097;-82
2021/01/06 03:31:42;;;;;;;80.40;25.87;;;-1.40;99.90;;;;;;4972446;28;20038;-82
2021/01/06 03:34:34;;;;;;;85.67;25.97;;;-1.40;99.90;;;;;;4969835;28;20376;-82
2021/01/06 03:37:25;;;;;;;75.23;26.57;;;-1.40;99.90;;;;;;4989632;28;20026;-83
2021/01/06 03:40:07;;;;;;;83.27;27.73;;;-1.40;99.90;;;;;;4999092;28;20022;-82
2021/01/06 03:42:34;;;;;;;87.17;26.63;;;-1.40;99.90;;;;;;4995860;28;20023;-82
2021/01/06 03:45:01;;;;;;;92.17;28.40;;;-1.50;99.90;;;;;;4990492;28;20053;-82
2021/01/06 03:47:31;;;;;;;91.03;28.20;;;-1.40;99.90;;;;;;5015381;28;20034;-81
2021/01/06 03:50:14;;;;;;;80.53;26.43;;;-1.40;99.90;;;;;;5010303;28;20562;-82
2021/01/06 03:52:49;;;;;;;88.27;27.07;;;-1.40;99.90;;;;;;5033700;28;20052;-82
2021/01/06 03:55:44;;;;;;;70.47;25.37;;;-1.40;99.90;;;;;;5030700;28;20500;-83
2021/01/06 03:58:32;;;;;;;98.40;28.67;;;-1.40;99.90;;;;;;5014107;28;20066;-81
2021/01/06 04:01:14;;;;;;;80.57;23.53;;;-1.40;99.90;;;;;;5031160;28;20065;-81
2021/01/06 04:04:06;;;;;;;83.47;25.40;;;-1.40;99.90;;;;;;5029575;28;20440;-82
2021/01/06 04:06:34;;;;;;;77.30;25.47;;;-1.40;99.90;;;;;;5023803;28;20033;-83
2021/01/06 04:09:05;;;;;;;77.87;24.47;;;-1.40;99.90;;;;;;5015469;28;20033;-83
2021/01/06 04:11:35;;;;;;;79.23;26.90;;;-1.40;99.90;;;;;;5018362;28;20036;-81
2021/01/06 04:14:01;;;;;;;68.43;24.40;;;-1.40;99.90;;;;;;5033412;28;20445;-82
2021/01/06 04:16:27;;;;;;;75.20;24.00;;;-1.40;99.90;;;;;;5027740;28;20032;-83
2021/01/06 04:18:53;;;;;;;78.20;24.87;;;-1.40;99.90;;;;;;5014323;28;20532;-81
2021/01/06 04:21:19;;;;;;;80.67;25.07;;;-1.50;99.90;;;;;;5039657;28;20037;-82
2021/01/06 04:23:45;;;;;;;59.00;19.43;;;-1.50;99.90;;;;;;5057458;28;20053;-82
2021/01/06 04:26:14;;;;;;;67.17;22.03;;;-1.50;99.90;;;;;;5045728;28;20025;-82
2021/01/06 04:28:40;;;;;;;68.82;21.17;;;-1.50;99.90;;;;;;5061194;28;20048;-82
2021/01/06 04:31:19;;;;;;;73.80;25.27;;;-1.50;99.90;;;;;;5036559;28;20029;-83
2021/01/06 04:33:50;;;;;;;75.60;24.40;;;-1.50;99.90;;;;;;5029387;28;20021;-82
2021/01/06 04:36:28;;;;;;;56.57;18.30;;;-1.50;99.90;;;;;;5026307;28;20029;-81
2021/01/06 04:38:57;;;;;;;66.20;21.83;;;-1.50;99.90;;;;;;5051455;28;20031;-81
2021/01/06 04:41:38;;;;;;;62.58;18.83;;;-1.50;99.90;;;;;;5039866;28;20314;-81
2021/01/06 04:44:37;;;;;;;73.70;21.90;;;-1.50;99.90;;;;;;5061219;28;20484;-82
2021/01/06 04:47:19;;;;;;;73.18;24.70;;;-1.50;99.90;;;;;;5030719;28;20041;-82
2021/01/06 04:49:44;;;;;;;68.73;22.33;;;-1.50;99.90;;;;;;5027463;28;20052;-81
2021/01/06 04:52:50;;;;;;;74.13;23.83;;;-1.50;99.90;;;;;;5036220;28;20389;-82
2021/01/06 04:55:27;;;;;;;78.50;24.67;;;-1.50;99.90;;;;;;5049727;28;20052;-81
2021/01/06 04:58:16;;;;;;;78.20;24.93;;;-1.40;99.90;;;;;;5030549;28;20499;-81
2021/01/06 05:01:02;;;;;;;68.80;22.63;;;-1.40;99.90;;;;;;5029771;28;20021;-80
2021/01/06 05:03:31;;;;;;;67.13;20.40;;;-1.40;99.90;;;;;;5034717;28;20036;-80
2021/01/06 05:06:04;;;;;;;;;;;-1.40;99.90;;;;;;5051152;28;20032;-80
2021/01/06 05:08:41;;;;;;;73.87;23.93;;;-1.40;99.90;;;;;;5039667;28;19913;-82
2021/01/06 05:11:29;;;;;;;69.67;21.47;;;-1.40;99.90;;;;;;5043714;28;20033;-80
2021/01/06 05:14:16;;;;;;;67.03;21.83;;;-1.40;99.90;;;;;;5058185;28;20054;-81
2021/01/06 05:16:46;;;;;;;78.00;25.03;;;-1.40;99.90;;;;;;5031867;28;20408;-80
2021/01/06 05:19:16;;;;;;;71.97;23.63;;;-1.40;99.90;;;;;;5059496;28;20032;-82
2021/01/06 05:21:42;;;;;;;79.63;27.17;;;-1.40;99.90;;;;;;5051392;28;20444;-81
2021/01/06 05:24:33;;;;;;;71.13;26.27;;;-1.40;99.90;;;;;;5023568;28;20117;-80
2021/01/06 05:27:15;;;;;;;87.23;26.10;;;-1.40;99.90;;;;;;5024208;28;20021;-82
2021/01/06 05:29:42;;;;;;;79.33;24.40;;;-1.50;99.90;;;;;;5016537;28;20068;-82
2021/01/06 05:32:30;;;;;;;81.27;26.57;;;-1.40;99.90;;;;;;5048885;28;20109;-82
2021/01/06 05:35:04;;;;;;;73.73;23.27;;;-1.50;99.90;;;;;;5053290;28;20456;-81
2021/01/06 05:37:31;;;;;;;68.13;21.17;;;-1.50;99.90;;;;;;5033596;28;20030;-83
2021/01/06 05:40:04;;;;;;;69.63;22.37;;;-1.40;99.90;;;;;;5019065;28;20037;-82
2021/01/06 05:42:52;;;;;;;81.73;27.17;;;-1.50;99.90;;;;;;5034152;28;20428;-81
2021/01/06 05:45:24;;;;;;;70.43;22.47;;;-1.50;99.90;;;;;;5037301;28;20099;-82
2021/01/06 05:48:03;;;;;;;76.23;23.30;;;-1.50;99.90;;;;;;5048900;28;20021;-82
2021/01/06 05:50:36;;;;;;;81.40;28.02;;;-1.50;99.90;;;;;;5064116;28;20032;-82
2021/01/06 05:53:43;;;;;;;70.00;23.73;;;-1.50;99.90;;;;;;5047699;28;20127;-82
2021/01/06 05:56:22;;;;;;;81.03;26.20;;;-1.50;99.90;;;;;;5039801;28;20545;-82
2021/01/06 05:58:55;;;;;;;88.00;26.87;;;-1.40;99.90;;;;;;5023353;28;20539;-81
2021/01/06 06:01:39;;;;;;;80.90;27.37;;;-1.50;99.90;;;;;;5016418;28;20199;-82
2021/01/06 06:04:17;;;;;;;84.97;26.67;;;-1.40;99.90;;;;;;5023484;28;20025;-81
2021/01/06 06:06:54;;;;;;;82.50;25.10;;;-1.40;99.90;;;;;;5035053;28;20102;-82
2021/01/06 06:09:43;;;;;;;79.80;26.83;;;-1.50;99.90;;;;;;5039504;28;20096;-82
2021/01/06 06:12:27;;;;;;;64.85;21.02;;;-1.50;99.90;;;;;;5036845;28;20107;-80
2021/01/06 06:15:13;;;;;;;81.80;24.37;;;-1.50;99.90;;;;;;5024122;28;20035;-81
2021/01/06 06:18:10;;;;;;;84.50;24.13;;;-1.50;99.90;;;;;;5029944;28;20195;-82
2021/01/06 06:20:43;;;;;;;79.33;24.80;;;-1.50;99.90;;;;;;5025583;28;20017;-82
2021/01/06 06:23:40;;;;;;;74.80;26.40;;;-1.40;99.90;;;;;;5028284;28;20046;-80
2021/01/06 06:26:17;;;;;;;84.93;25.63;;;-1.40;99.90;;;;;;5034597;28;20041;-81
2021/01/06 06:28:53;;;;;;;81.20;25.90;;;-1.40;99.90;;;;;;5034133;28;20033;-82
2021/01/06 06:31:33;;;;;;;75.20;24.40;;;-1.40;99.90;;;;;;5025492;28;20434;-81
2021/01/06 06:34:01;;;;;;;62.10;20.27;;;-1.50;99.90;;;;;;5017927;28;20032;-81
2021/01/06 06:36:31;;;;;;;63.57;20.97;;;-1.50;99.90;;;;;;5016555;28;20025;-81
2021/01/06 06:39:03;;;;;;;65.83;20.03;;;-1.50;99.90;;;;;;5015336;28;20033;-81
2021/01/06 06:41:36;;;;;;;56.83;18.17;;;-1.50;99.90;;;;;;5030985;28;20519;-81
2021/01/06 06:44:25;;;;;;;66.40;20.40;;;-1.50;99.90;;;;;;5032329;28;20029;-82
2021/01/06 06:47:09;;;;;;;80.90;22.67;;;-1.50;99.90;;;;;;5006923;28;20033;-81
2021/01/06 06:49:56;;;;;;;80.97;24.50;;;-1.50;99.90;;;;;;5030564;28;20044;-81
2021/01/06 06:52:37;;;;;;;92.57;27.07;;;-1.50;99.90;;;;;;5032980;28;20883;-82
2021/01/06 06:55:24;;;;;;;84.40;26.13;;;-1.50;99.90;;;;;;5029078;28;20026;-81
2021/01/06 06:58:10;;;;;;;73.37;23.33;;;-1.40;99.90;;;;;;5029411;28;20029;-81
2021/01/06 07:00:37;;;;;;;83.67;24.90;;;-1.50;99.90;;;;;;5031253;28;20036;-79
2021/01/06 07:03:05;;;;;;;85.53;27.23;;;-1.40;99.90;;;;;;5022626;28;20075;-82
2021/01/06 07:05:48;;;;;;;87.70;26.43;;;-1.50;99.90;;;;;;5012279;28;20144;-80
2021/01/06 07:08:28;;;;;;;75.57;23.70;;;-1.40;99.90;;;;;;5010058;28;20597;-81
2021/01/06 07:10:59;;;;;;;69.93;19.67;;;-1.50;99.90;;;;;;5032314;28;20030;-82
2021/01/06 07:13:26;;;;;;;74.90;23.47;;;-1.50;99.90;;;;;;5035787;28;20094;-82
2021/01/06 07:15:54;;;;;;;73.13;21.87;;;-1.50;99.90;;;;;;5043541;28;20021;-87
2021/01/06 07:18:42;;;;;;;80.10;23.97;;;-1.50;99.90;;;;;;5035119;28;20041;-85
2021/01/06 07:21:32;;;;;;;67.53;21.10;;;-1.50;99.90;;;;;;5048789;28;20404;-86
2021/01/06 07:24:07;;;;;;;70.63;22.10;;;-1.50;99.90;;;;;;5033614;28;20051;-86
2021/01/06 07:26:41;;;;;;;80.40;24.67;;;-1.50;99.90;;;;;;5040343;28;20021;-79
2021/01/06 07:29:10;;;;;;;76.77;25.40;;;-1.50;99.90;;;;;;5035531;28;20052;-82
2021/01/06 07:31:40;;;;;;;74.97;22.80;;;-1.50;99.90;;;;;;5021287;28;20086;-80
2021/01/06 07:34:15;;;;;;;72.93;24.47;;;-1.50;99.90;;;;;;5034986;28;20507;-85
2021/01/06 07:36:53;;;;;;;69.43;21.57;;;-1.50;99.90;;;;;;5038232;28;20022;-84
2021/01/06 07:39:25;;;;;;;76.13;24.43;;;-1.50;99.90;;;;;;5031805;28;20445;-80
2021/01/06 07:41:51;;;;;;;85.00;25.53;;;-1.50;99.90;;;;;;5024799;28;20025;-82
2021/01/06 07:44:22;;;;;;;65.03;19.73;;;-1.50;99.90;;;;;;5032174;28;20099;-82
2021/01/06 07:47:19;;;;;;;73.13;22.60;;;-1.50;99.90;;;;;;5018133;28;20041;-83
2021/01/06 07:49:50;;;;;;;73.77;23.23;;;-1.50;99.90;;;;;;4965914;28;20063;-83
2021/01/06 07:52:35;;;;;;;78.40;23.63;;;-1.50;99.90;;;;;;4975703;28;20135;-83
2021/01/06 07:55:15;;;;;;;68.33;21.50;;;-1.50;99.90;;;;;;4962624;28;20051;-82
2021/01/06 07:57:48;;;;;;;61.97;18.53;;;-1.50;99.90;;;;;;4953460;28;20030;-82
2021/01/06 08:00:17;;;;;;;74.23;20.90;;;-1.60;99.90;;;;;;4938769;28;20042;-82
2021/01/06 08:02:58;;;;;;;65.30;17.90;;;-1.50;99.90;;;;;;4944389;29;20416;-80
2021/01/06 08:05:33;;;;;;;70.90;21.40;;;-1.50;99.90;;;;;;4933647;29;20507;-82
2021/01/06 08:08:14;;;;;;;75.73;21.80;;;-1.60;99.90;;;;;;4951480;29;20146;-82
2021/01/06 08:10:44;;;;;;;74.87;23.07;;;-1.50;99.90;;;;;;4951108;29;20098;-83
2021/01/06 08:13:18;;;;;;;49.30;14.57;;;-1.50;99.90;;;;;;4933914;29;20118;-83
2021/01/06 08:15:47;;;;;;;76.03;23.20;;;-1.50;99.90;;;;;;4947641;29;20043;-81
2021/01/06 08:18:31;;;;;;;49.17;14.40;;;-1.50;99.90;;;;;;4959384;28;20031;-80
2021/01/06 08:21:06;;;;;;;69.77;22.73;;;-1.50;99.90;;;;;;4933751;28;20062;-82
2021/01/06 08:23:53;;;;;;;68.40;20.83;;;-1.50;99.90;;;;;;4935438;29;20428;-83
2021/01/06 08:26:23;;;;;;;50.80;17.07;;;-1.40;99.90;;;;;;4997747;28;20037;-83
2021/01/06 08:28:49;;;;;;;61.87;22.77;;;-1.40;99.90;;;;;;5036085;28;20045;-82
2021/01/06 08:31:21;;;;;;;62.63;19.03;;;-1.40;99.90;;;;;;5015547;28;20351;-83
2021/01/06 08:33:59;;;;;;;77.70;22.77;;;-1.40;99.90;;;;;;5010080;28;20107;-82
2021/01/06 08:36:36;;;;;;;67.43;19.97;;;-1.40;99.90;;;;;;5029613;28;20029;-83
2021/01/06 08:39:12;;;;;;;50.57;16.43;;;-1.40;99.90;;;;;;5020418;28;20026;-81
2021/01/06 08:41:37;;;;;;;55.17;17.70;;;-1.40;99.90;;;;;;5023415;28;20034;-82
2021/01/06 08:44:05;;;;;;;51.83;17.37;;;-1.30;99.90;;;;;;5019915;28;20040;-83
2021/01/06 08:46:34;;;;;;;74.47;25.17;;;-1.30;99.90;;;;;;5034314;28;20595;-81
2021/01/06 08:49:25;;;;;;;61.78;18.33;;;-1.20;99.90;;;;;;5021357;28;20034;-83
2021/01/06 08:51:54;;;;;;;39.97;14.20;;;-1.20;99.90;;;;;;5034712;28;20117;-83
2021/01/06 08:54:31;;;;;;;60.13;18.35;;;-1.20;99.90;;;;;;5043867;28;20022;-88
2021/01/06 08:57:06;;;;;;;59.40;19.07;;;-1.20;99.90;;;;;;5019430;28;20038;-81
2021/01/06 08:59:37;;;;;;;66.90;21.00;;;-1.10;99.90;;;;;;5012824;28;20056;-82
2021/01/06 09:02:31;;;;;;;54.00;19.07;;;-1.00;99.90;;;;;;5021863;28;20037;-80
2021/01/06 09:04:57;;;;;;;43.67;15.10;;;-1.00;99.90;;;;;;5037885;28;20021;-81
2021/01/06 09:07:25;;;;;;;59.53;19.30;;;-1.00;99.90;;;;;;5016833;28;20041;-84
2021/01/06 09:10:06;;;;;;;50.80;16.40;;;-1.00;99.90;;;;;;5035813;28;20048;-80
2021/01/06 09:12:47;;;;;;;39.87;14.40;;;-1.00;99.90;;;;;;5032822;28;20033;-81
2021/01/06 09:15:28;;;;;;;54.57;18.93;;;-1.00;99.90;;;;;;5017128;28;20033;-79
2021/01/06 09:18:16;;;;;;;40.03;12.80;;;-0.90;99.90;;;;;;5017177;28;21232;-80
2021/01/06 09:21:08;;;;;;;30.90;9.13;;;-0.90;99.90;;;;;;5033538;28;20029;-82
2021/01/06 09:23:34;;;;;;;38.53;14.67;;;-1.00;99.90;;;;;;5035087;28;20229;-82
2021/01/06 09:26:01;;;;;;;44.43;15.70;;;-1.10;99.90;;;;;;5024443;28;20025;-82
2021/01/06 09:28:30;;;;;;;35.57;12.60;;;-1.00;99.90;;;;;;5037991;28;20036;-81
2021/01/06 09:30:56;;;;;;;41.17;14.30;;;-1.00;99.90;;;;;;5033266;28;20025;-82
2021/01/06 09:33:31;;;;;;;42.37;13.80;;;-0.90;99.90;;;;;;5041301;28;20055;-81
2021/01/06 09:35:58;;;;;;;43.43;15.37;;;-0.90;99.90;;;;;;5019406;28;20033;-81
2021/01/06 09:38:40;;;;;;;47.83;15.70;;;-0.90;99.90;;;;;;5038744;28;20168;-81
2021/01/06 09:41:10;;;;;;;44.57;15.83;;;-0.90;99.90;;;;;;5038928;28;20056;-81
2021/01/06 09:43:40;;;;;;;21.90;9.47;;;-0.90;99.90;;;;;;5031207;28;20403;-80
2021/01/06 09:46:45;;;;;;;42.13;13.73;;;-0.90;99.90;;;;;;5018906;28;20039;-81
2021/01/06 09:49:23;;;;;;;37.90;13.97;;;-0.90;99.90;;;;;;5036868;28;20037;-80
2021/01/06 09:51:53;;;;;;;38.63;15.33;;;-0.90;99.90;;;;;;5029296;28;20021;-80
2021/01/06 09:54:20;;;;;;;31.17;9.43;;;-0.80;99.90;;;;;;5030346;28;20025;-80
2021/01/06 09:56:46;;;;;;;35.57;12.33;;;-0.90;99.90;;;;;;5032500;28;20036;-82
2021/01/06 09:59:24;;;;;;;39.33;15.57;;;-0.80;99.90;;;;;;5038494;28;20377;-85
2021/01/06 10:02:00;;;;;;;45.80;17.05;;;-0.80;99.90;;;;;;5029088;28;20029;-85
2021/01/06 10:04:32;;;;;;;31.60;12.23;;;-0.70;99.90;;;;;;5060187;28;20029;-85
2021/01/06 10:07:22;;;;;;;33.70;12.33;;;-0.70;99.90;;;;;;5030549;28;20439;-82
2021/01/06 10:09:59;;;;;;;24.47;9.33;;;-0.70;99.90;;;;;;5030899;28;20507;-82
2021/01/06 10:12:44;;;;;;;34.20;12.23;;;-0.80;99.90;;;;;;5024313;28;20056;-83
2021/01/06 10:15:29;;;;;;;29.27;10.63;;;-0.80;99.90;;;;;;5023731;28;20105;-86
2021/01/06 10:18:01;;;;;;;19.67;7.90;;;-0.80;99.90;;;;;;5022595;28;20026;-83
2021/01/06 10:20:43;;;;;;;36.77;13.23;;;-0.80;99.90;;;;;;5021540;28;20030;-82
2021/01/06 10:23:28;;;;;;;35.50;12.20;;;-0.80;99.90;;;;;;5045215;28;20056;-82
2021/01/06 10:26:19;;;;;;;42.00;13.83;;;-0.70;99.90;;;;;;5036262;28;20499;-84
2021/01/06 10:28:48;;;;;;;35.53;12.83;;;-0.70;99.90;;;;;;5049010;28;20017;-85
2021/01/06 10:31:26;;;;;;;45.57;15.70;;;-0.60;99.90;;;;;;5057210;28;20024;-84
2021/01/06 10:34:05;;;;;;;27.03;10.30;;;-0.60;99.90;;;;;;5041732;28;20021;-87
2021/01/06 10:37:06;;;;;;;42.00;14.93;;;-0.60;99.90;;;;;;5043789;28;20743;-84
2021/01/06 10:39:50;;;;;;;38.85;15.43;;;-0.70;99.90;;;;;;5073650;28;20165;-85
2021/01/06 10:42:32;;;;;;;30.37;11.60;;;-0.70;99.90;;;;;;5042195;28;20052;-85
2021/01/06 10:45:11;;;;;;;44.70;16.47;;;-0.70;99.90;;;;;;5059380;28;20079;-85
2021/01/06 10:47:50;;;;;;;27.67;9.27;;;-0.60;99.90;;;;;;5061585;28;20370;-84
2021/01/06 10:50:26;;;;;;;32.07;8.33;;;-0.60;99.90;;;;;;5032819;28;20299;-84
2021/01/06 10:53:01;;;;;;;41.80;13.77;;;-0.70;99.90;;;;;;5051938;28;20051;-85
2021/01/06 10:55:47;;;;;;;37.53;12.93;;;-0.60;99.90;;;;;;5055671;28;20040;-87
2021/01/06 10:58:21;;;;;;;40.60;14.63;;;-0.50;99.90;;;;;;5031816;28;20017;-82
2021/01/06 11:01:17;;;;;;;32.47;11.67;;;-0.50;99.90;;;;;;5040015;28;20033;-83
2021/01/06 11:03:43;;;;;;;42.37;13.13;;;-0.50;99.90;;;;;;5040363;28;20078;-84
2021/01/06 11:06:26;;;;;;;40.17;16.10;;;-0.50;99.90;;;;;;5042177;28;20033;-85
2021/01/06 11:09:19;;;;;;;24.97;10.20;;;-0.40;99.90;;;;;;5048227;28;20032;-85
2021/01/06 11:12:04;;;;;;;24.33;10.03;;;-0.50;99.90;;;;;;5070320;28;20044;-86
2021/01/06 11:15:01;;;;;;;35.77;12.80;;;-0.60;99.90;;;;;;5029629;28;20132;-85
2021/01/06 11:17:36;;;;;;;32.63;11.17;;;-0.60;99.90;;;;;;5055219;28;20033;-82
2021/01/06 11:20:24;;;;;;;34.87;12.20;;;-0.50;99.90;;;;;;5053392;28;20037;-80
2021/01/06 11:22:51;;;;;;;44.07;15.97;;;-0.50;99.90;;;;;;5037286;28;20140;-80
2021/01/06 11:25:44;;;;;;;40.67;15.70;;;-0.50;99.90;;;;;;5036514;28;20078;-81
2021/01/06 11:29:14;;;;;;;41.87;17.07;;;-0.40;99.90;;;;;;5067066;28;20023;-87
2021/01/06 11:31:55;;;;;;;37.43;14.20;;;-0.40;99.90;;;;;;5005873;28;20058;-86
2021/01/06 11:34:34;;;;;;;39.27;13.97;;;-0.30;99.90;;;;;;5001704;28;20022;-90
2021/01/06 11:37:01;;;;;;;26.63;9.60;;;-0.40;99.90;;;;;;5023399;28;20030;-89
2021/01/06 11:39:47;;;;;;;30.40;11.43;;;-0.40;99.90;;;;;;5029271;28;20034;-89
2021/01/06 11:42:16;;;;;;;40.27;14.50;;;-0.40;99.90;;;;;;4965227;28;20657;-89
2021/01/06 11:45:08;;;;;;;40.15;13.95;;;-0.30;99.90;;;;;;4968812;28;20034;-88
2021/01/06 11:48:02;;;;;;;41.60;13.33;;;-0.20;99.90;;;;;;4955817;29;20052;-91
2021/01/06 11:50:40;;;;;;;34.30;13.70;;;-0.20;99.90;;;;;;4948694;29;20103;-89
2021/01/06 11:53:23;;;;;;;37.10;12.80;;;-0.20;99.90;;;;;;4953941;28;20035;-89
2021/01/06 11:56:16;;;;;;;40.00;14.10;;;-0.10;99.90;;;;;;4967148;28;20035;-85
2021/01/06 11:59:06;;;;;;;32.80;11.43;;;-0.20;99.90;;;;;;4962161;29;20054;-90
2021/01/06 12:01:49;;;;;;;34.50;12.23;;;-0.30;99.90;;;;;;4949342;28;20035;-90
2021/01/06 12:04:44;;;;;;;30.73;11.10;;;-0.30;99.90;;;;;;4985949;28;20130;-85
2021/01/06 12:07:52;;;;;;;36.97;12.50;;;-0.20;99.90;;;;;;4970560;28;20038;-90
2021/01/06 12:10:34;;;;;;;25.23;8.63;;;-0.30;99.90;;;;;;4960235;29;20043;-87
2021/01/06 12:13:06;;;;;;;29.97;12.80;;;-0.30;99.90;;;;;;4968378;28;20039;-90
2021/01/06 12:15:41;;;;;;;38.20;14.47;;;-0.20;99.90;;;;;;4944189;28;20038;-83
2021/01/06 12:18:28;;;;;;;31.13;11.93;;;-0.20;99.90;;;;;;4950008;28;20040;-88
2021/01/06 12:20:56;;;;;;;29.83;10.43;;;-0.20;99.90;;;;;;4997523;28;20416;-85
2021/01/06 12:23:37;;;;;;;36.03;13.23;;;-0.10;99.90;;;;;;4992004;28;20128;-89
2021/01/06 12:26:05;;;;;;;33.97;13.97;;;-0.10;99.90;;;;;;5001303;28;20434;-91
2021/01/06 12:28:46;;;;;;;32.50;12.73;;;0.00;99.90;;;;;;4978172;28;20126;-87
2021/01/06 12:31:22;;;;;;;37.70;15.90;;;-0.10;99.90;;;;;;4993611;28;20043;-83
2021/01/06 12:34:03;;;;;;;34.67;12.80;;;0.00;99.90;;;;;;4999093;28;20035;-84
2021/01/06 12:36:33;;;;;;;24.97;10.07;;;0.00;99.90;;;;;;5002096;28;20069;-85
2021/01/06 12:39:37;;;;;;;34.13;12.20;;;0.10;99.90;;;;;;4995305;28;20034;-87
2021/01/06 12:42:29;;;;;;;34.33;13.40;;;0.00;99.90;;;;;;4995582;28;20550;-89
2021/01/06 12:45:09;;;;;;;35.23;13.10;;;0.10;99.90;;;;;;4943178;29;20023;-91
2021/01/06 12:48:13;;;;;;;35.80;13.27;;;0.10;99.90;;;;;;4960081;29;20035;-92
2021/01/06 12:51:00;;;;;;;35.43;12.50;;;0.10;99.90;;;;;;4925701;29;20103;-93
2021/01/06 12:53:39;;;;;;;36.50;14.23;;;0.10;99.90;;;;;;4953916;29;20039;-90
2021/01/06 12:56:23;;;;;;;28.63;11.43;;;0.10;99.90;;;;;;4948899;29;20055;-91
2021/01/06 12:59:06;;;;;;;32.40;12.20;;;0.10;99.90;;;;;;4949456;28;20040;-91
2021/01/06 13:01:57;;;;;;;24.30;10.43;;;0.10;99.90;;;;;;4944662;29;20031;-84
2021/01/06 13:04:33;;;;;;;24.43;9.13;;;0.10;99.90;;;;;;4940865;29;20055;-86
2021/01/06 13:07:14;;;;;;;38.97;14.27;;;0.00;99.90;;;;;;4938809;29;20131;-84
2021/01/06 13:10:15;;;;;;;23.00;8.90;;;0.00;99.90;;;;;;4960083;29;20199;-84
2021/01/06 13:13:23;;;;;;;35.40;13.53;;;0.00;99.90;;;;;;4897970;29;20049;-86
2021/01/06 13:16:00;;;;;;;34.93;11.57;;;0.00;99.90;;;;;;4894119;29;20690;-87